Jacobabad Weather



Jacobabad's Current Weather

Temprature 23.58o clear sky

clear sky

Rain: 0 %

Min Temprature23.58o
Max Temprature23.58o
Humidity20
Wind Speed1.03 m/h
Sun Rise06:35:01
Sun Set17:44:48
Current Time: 28-Oct-2020 07:32:03
Lat/Lon: 28.28, 68.44




Jacobabad's Geo Location



Jacobabad's Weather Forecast

Time Overall Temp Min Temp Max Temp Humidity Wind Speed Rain
28-Oct-2020 (Wed)
08:00:00 clear sky 21.660 21.660 23.580 22 1.03 m/h 0 %
11:00:00 clear sky 29.920 29.920 32.700 14 1.55 m/h 0 %
14:00:00 clear sky 34.910 34.910 35.940 10 1.97 m/h 0 %
17:00:00 clear sky 33.020 33.020 33.130 11 2.46 m/h 0 %
20:00:00 clear sky 24.510 24.510 24.510 18 1.04 m/h 0 %
23:00:00 clear sky 23.590 23.590 23.590 19 1.87 m/h 0 %
29-Oct-2020 (Thu)
02:00:00 clear sky 22.120 22.120 22.120 20 1.36 m/h 0 %
05:00:00 clear sky 20.740 20.740 20.740 22 1.88 m/h 0 %
08:00:00 clear sky 23.990 23.990 23.990 18 0.89 m/h 0 %
11:00:00 clear sky 32.450 32.450 32.450 11 2.54 m/h 0 %
14:00:00 clear sky 35.740 35.740 35.740 9 2.01 m/h 0 %
17:00:00 clear sky 32.800 32.800 32.800 11 2.19 m/h 0 %
20:00:00 clear sky 24.460 24.460 24.460 18 1.85 m/h 0 %
23:00:00 clear sky 22.090 22.090 22.090 21 1.2 m/h 0 %
30-Oct-2020 (Fri)
02:00:00 clear sky 21.860 21.860 21.860 21 2.74 m/h 0 %
05:00:00 clear sky 20.000 20.000 20.000 24 2.95 m/h 0 %
08:00:00 clear sky 22.270 22.270 22.270 22 2.85 m/h 0 %
11:00:00 clear sky 31.850 31.850 31.850 12 3.06 m/h 0 %
14:00:00 clear sky 35.860 35.860 35.860 9 0.37 m/h 0 %
17:00:00 clear sky 32.940 32.940 32.940 11 2.26 m/h 0 %
20:00:00 clear sky 25.180 25.180 25.180 17 2.94 m/h 0 %
23:00:00 clear sky 21.870 21.870 21.870 22 0.61 m/h 0 %
31-Oct-2020 (Sat)
02:00:00 clear sky 21.150 21.150 21.150 23 1.03 m/h 0 %
05:00:00 clear sky 19.880 19.880 19.880 25 1.34 m/h 0 %
08:00:00 clear sky 23.960 23.960 23.960 19 0.87 m/h 0 %
11:00:00 clear sky 32.620 32.620 32.620 11 0.97 m/h 0 %
14:00:00 clear sky 35.360 35.360 35.360 9 3.19 m/h 0 %
17:00:00 clear sky 32.570 32.570 32.570 11 3.23 m/h 0 %
20:00:00 clear sky 25.140 25.140 25.140 17 2.63 m/h 0 %
23:00:00 clear sky 22.000 22.000 22.000 21 1.3 m/h 0 %
01-Nov-2020 (Sun)
02:00:00 clear sky 20.980 20.980 20.980 22 1 m/h 0 %
05:00:00 clear sky 19.940 19.940 19.940 24 0.97 m/h 0 %
08:00:00 clear sky 24.560 24.560 24.560 18 1.62 m/h 0 %
11:00:00 clear sky 33.070 33.070 33.070 10 2.59 m/h 0 %
14:00:00 clear sky 35.490 35.490 35.490 9 3.03 m/h 0 %
17:00:00 clear sky 32.340 32.340 32.340 10 3.65 m/h 0 %
20:00:00 clear sky 24.600 24.600 24.600 16 2.18 m/h 0 %
23:00:00 clear sky 21.690 21.690 21.690 20 0.83 m/h 0 %
02-Nov-2020 (Mon)
02:00:00 clear sky 19.400 19.400 19.400 23 0.66 m/h 0 %
05:00:00 clear sky 19.260 19.260 19.260 23 1.07 m/h 0 %

Famous Cities (60)